Time;durP1;ratioP1;P1;durP2;ratioP2;P2;SDS_P1;SDS_P2;PMS_P1;PMS_P2;Temp;Humidity;BMP_temperature;BMP_pressure;BME280_temperature;BME280_humidity;BME280_pressure;Samples;Min_cycle;Max_cycle;Signal;HPM_P1;HPM_P2
2021/12/07 00:00:50;;;;;;;3.33;1.23;;;7.80;99.90;;;;;;5090157;28;20441;-68
2021/12/07 00:03:17;;;;;;;3.17;1.20;;;7.50;99.90;;;;;;5090506;28;20448;-71
2021/12/07 00:05:45;;;;;;;3.07;1.47;;;7.60;99.90;;;;;;5089817;28;20530;-71
2021/12/07 00:08:12;;;;;;;4.30;1.43;;;7.60;99.90;;;;;;5090810;28;20719;-70
2021/12/07 00:10:41;;;;;;;3.10;1.40;;;7.60;99.90;;;;;;5090570;28;20450;-70
2021/12/07 00:13:09;;;;;;;3.40;1.40;;;7.40;99.90;;;;;;5089932;28;20488;-70
2021/12/07 00:15:36;;;;;;;3.40;1.60;;;7.30;99.90;;;;;;5089774;28;20473;-71
2021/12/07 00:18:05;;;;;;;4.50;2.43;;;7.20;99.90;;;;;;5090001;28;20953;-71
2021/12/07 00:20:33;;;;;;;4.77;1.50;;;7.30;99.90;;;;;;5090290;28;20457;-69
2021/12/07 00:23:05;;;;;;;4.50;2.00;;;7.30;99.90;;;;;;5090384;28;20497;-70
2021/12/07 00:25:33;;;;;;;3.90;1.80;;;7.20;99.90;;;;;;5089965;28;20538;-71
2021/12/07 00:28:00;;;;;;;4.20;1.90;;;7.20;99.90;;;;;;5090032;28;20481;-70
2021/12/07 00:30:31;;;;;;;3.63;1.63;;;7.30;99.90;;;;;;5089187;28;20462;-69
2021/12/07 00:33:10;;;;;;;3.60;1.70;;;7.40;99.90;;;;;;5090229;28;20461;-69
2021/12/07 00:35:39;;;;;;;5.20;1.60;;;7.50;99.90;;;;;;5089897;28;20471;-69
2021/12/07 00:38:09;;;;;;;4.00;1.80;;;7.40;99.90;;;;;;5089607;28;20929;-70
2021/12/07 00:40:37;;;;;;;6.53;1.43;;;7.30;99.90;;;;;;5089980;28;20459;-70
2021/12/07 00:43:05;;;;;;;3.20;1.30;;;7.30;99.90;;;;;;5089814;28;20452;-70
2021/12/07 00:45:34;;;;;;;4.40;1.37;;;7.30;99.90;;;;;;5089545;28;20764;-68
2021/12/07 00:48:02;;;;;;;3.10;1.20;;;7.20;99.90;;;;;;5089700;28;20485;-70
2021/12/07 00:50:30;;;;;;;3.30;1.37;;;7.20;99.90;;;;;;5089544;28;20463;-69
2021/12/07 00:53:02;;;;;;;2.70;1.10;;;7.10;99.90;;;;;;5089896;28;20452;-69
2021/12/07 00:55:32;;;;;;;3.33;1.07;;;7.10;99.90;;;;;;5089538;28;20537;-67
2021/12/07 00:58:06;;;;;;;3.17;1.30;;;7.20;99.90;;;;;;5088987;28;20456;-70
2021/12/07 01:00:33;;;;;;;3.10;1.20;;;6.90;99.90;;;;;;5088813;28;20453;-68
2021/12/07 01:03:00;;;;;;;2.80;0.90;;;7.20;99.90;;;;;;5089707;28;20459;-71
2021/12/07 01:05:29;;;;;;;4.27;1.37;;;7.20;99.90;;;;;;5089000;28;20879;-70
2021/12/07 01:24:43;;;;;;;4.17;1.20;;;6.90;99.90;;;;;;5089496;28;20435;-68
2021/12/07 01:27:15;;;;;;;3.10;1.10;;;6.90;99.90;;;;;;5089145;28;20485;-69
2021/12/07 01:29:45;;;;;;;3.80;1.13;;;6.90;99.90;;;;;;5089624;28;20452;-70
2021/12/07 01:32:24;;;;;;;2.83;0.93;;;7.00;99.90;;;;;;5089470;28;20461;-71
2021/12/07 01:37:52;;;;;;;3.37;1.30;;;7.10;99.90;;;;;;5089366;28;20436;-68
2021/12/07 01:40:34;;;;;;;3.17;1.00;;;7.10;99.90;;;;;;5089235;28;20464;-70
2021/12/07 01:46:23;;;;;;;2.90;1.00;;;7.10;99.90;;;;;;5089850;28;20957;-70
2021/12/07 01:51:49;;;;;;;3.00;0.93;;;7.00;99.90;;;;;;5093190;28;20423;-70
2021/12/07 01:59:52;;;;;;;3.43;1.27;;;7.20;99.90;;;;;;5093182;28;20469;-69
2021/12/07 02:02:22;;;;;;;4.60;1.40;;;7.20;99.90;;;;;;5093191;28;20518;-69
2021/12/07 02:04:50;;;;;;;3.20;1.17;;;7.20;99.90;;;;;;5092160;28;20967;-71
2021/12/07 02:07:17;;;;;;;2.90;0.90;;;7.20;99.90;;;;;;5093199;28;20704;-69
2021/12/07 02:09:49;;;;;;;2.93;0.90;;;7.10;99.90;;;;;;5092797;28;20502;-69
2021/12/07 02:12:18;;;;;;;2.80;0.80;;;7.20;99.90;;;;;;5092723;28;20836;-70
2021/12/07 02:14:45;;;;;;;2.70;0.63;;;7.20;99.90;;;;;;5092442;28;20466;-71
2021/12/07 02:17:15;;;;;;;3.20;0.93;;;7.20;99.90;;;;;;5092781;28;20506;-69
2021/12/07 02:19:42;;;;;;;2.70;1.00;;;7.10;99.90;;;;;;5092793;28;20444;-69
2021/12/07 02:22:11;;;;;;;3.27;0.67;;;7.20;99.90;;;;;;5093277;28;20452;-70
2021/12/07 02:24:39;;;;;;;4.00;0.97;;;7.10;99.90;;;;;;5092776;28;20455;-68
2021/12/07 02:27:08;;;;;;;2.70;0.60;;;7.00;99.90;;;;;;5092665;28;20661;-69
2021/12/07 02:29:35;;;;;;;2.87;1.00;;;7.00;99.90;;;;;;5092913;28;20452;-69
2021/12/07 02:32:04;;;;;;;2.73;0.67;;;6.90;99.90;;;;;;5092780;28;20452;-68
2021/12/07 02:34:31;;;;;;;3.17;0.83;;;6.80;99.90;;;;;;5092656;28;20462;-69
2021/12/07 02:37:00;;;;;;;3.27;0.70;;;6.70;99.90;;;;;;5092127;28;20452;-70
2021/12/07 02:39:34;;;;;;;2.80;0.70;;;6.70;99.90;;;;;;5092503;28;20539;-70
2021/12/07 02:42:03;;;;;;;2.70;0.70;;;6.70;99.90;;;;;;5092540;28;20932;-72
2021/12/07 02:44:30;;;;;;;2.80;0.90;;;6.70;99.90;;;;;;5092579;28;20453;-69
2021/12/07 02:46:57;;;;;;;2.50;0.60;;;6.70;99.90;;;;;;5092208;28;20469;-69
2021/12/07 02:49:24;;;;;;;2.73;0.80;;;6.60;99.90;;;;;;5092122;28;20448;-69
2021/12/07 02:51:51;;;;;;;3.47;1.03;;;6.50;99.90;;;;;;5092235;28;20452;-69
2021/12/07 02:54:20;;;;;;;3.60;0.83;;;6.30;99.90;;;;;;5091053;28;20451;-69
2021/12/07 02:56:50;;;;;;;3.23;1.00;;;6.40;99.90;;;;;;5091793;28;20509;-69
2021/12/07 02:59:19;;;;;;;2.60;0.90;;;6.40;99.90;;;;;;5092073;28;20976;-69
2021/12/07 03:01:53;;;;;;;3.13;1.13;;;6.40;99.90;;;;;;5091607;28;20490;-69
2021/12/07 03:04:25;;;;;;;3.90;1.20;;;6.50;99.90;;;;;;5090990;28;20912;-70
2021/12/07 03:07:03;;;;;;;3.00;0.90;;;6.60;99.90;;;;;;5091918;28;20579;-71
2021/12/07 03:10:04;;;;;;;2.73;0.90;;;6.50;99.90;;;;;;5090482;28;20462;-67
2021/12/07 03:26:24;;;;;;;2.93;0.80;;;6.50;99.90;;;;;;5091508;28;20467;-69
2021/12/07 03:28:54;;;;;;;3.30;1.03;;;6.50;99.90;;;;;;5090925;28;21006;-71
2021/12/07 03:31:25;;;;;;;3.10;1.00;;;6.60;99.90;;;;;;5091601;28;20459;-69
2021/12/07 03:33:54;;;;;;;2.80;0.80;;;6.60;99.90;;;;;;5091290;28;20458;-71
2021/12/07 03:36:21;;;;;;;5.53;1.40;;;6.40;99.90;;;;;;5091419;28;20562;-70
2021/12/07 03:38:48;;;;;;;2.73;0.80;;;6.20;99.90;;;;;;5091337;28;20494;-69
2021/12/07 03:41:16;;;;;;;2.60;0.90;;;6.10;99.90;;;;;;5091160;28;20451;-68
2021/12/07 03:43:43;;;;;;;2.90;0.70;;;6.20;99.90;;;;;;5091186;28;20993;-71
2021/12/07 03:46:13;;;;;;;3.40;0.80;;;6.20;99.90;;;;;;5090936;28;20960;-71
2021/12/07 03:48:42;;;;;;;3.30;1.20;;;6.20;99.90;;;;;;5091165;28;20532;-68
2021/12/07 03:51:09;;;;;;;3.40;0.90;;;6.10;99.90;;;;;;5091224;28;20928;-68
2021/12/07 03:53:36;;;;;;;3.90;1.27;;;6.00;99.90;;;;;;5090957;28;20455;-69
2021/12/07 03:56:05;;;;;;;3.83;1.10;;;6.00;99.90;;;;;;5090644;28;20480;-72
2021/12/07 03:58:32;;;;;;;3.03;0.90;;;5.90;99.90;;;;;;5090767;28;20449;-70
2021/12/07 04:01:00;;;;;;;4.40;1.10;;;5.80;99.90;;;;;;5090346;28;20956;-71
2021/12/07 04:03:33;;;;;;;3.00;1.00;;;5.70;99.90;;;;;;5090294;28;20452;-71
2021/12/07 04:06:04;;;;;;;2.90;1.10;;;5.50;99.90;;;;;;5090358;28;20964;-70
2021/12/07 04:08:32;;;;;;;3.03;0.80;;;5.50;99.90;;;;;;5090670;28;20523;-69
2021/12/07 04:10:59;;;;;;;3.43;0.93;;;5.40;99.90;;;;;;5090682;28;20448;-69
2021/12/07 04:13:27;;;;;;;5.40;1.00;;;5.50;99.90;;;;;;5090452;28;20491;-71
2021/12/07 04:15:54;;;;;;;2.90;1.00;;;5.40;99.90;;;;;;5090342;28;20809;-70
2021/12/07 04:18:22;;;;;;;3.17;1.10;;;5.30;99.90;;;;;;5090430;28;20448;-70
2021/12/07 04:20:50;;;;;;;2.80;0.93;;;5.40;99.90;;;;;;5090558;28;20529;-69
2021/12/07 04:23:17;;;;;;;4.93;0.80;;;5.40;99.90;;;;;;5090264;28;20462;-70
2021/12/07 04:25:44;;;;;;;2.63;0.90;;;5.50;99.90;;;;;;5089928;28;20486;-70
2021/12/07 04:28:12;;;;;;;3.53;0.90;;;5.40;99.90;;;;;;5090376;28;20542;-69
2021/12/07 04:30:40;;;;;;;2.87;1.00;;;5.40;99.90;;;;;;5090590;28;20494;-69
2021/12/07 04:33:10;;;;;;;3.70;1.00;;;5.40;99.90;;;;;;5090253;28;20467;-70
2021/12/07 04:35:39;;;;;;;3.67;1.30;;;5.50;99.90;;;;;;5090188;28;20966;-70
2021/12/07 04:38:08;;;;;;;3.10;1.00;;;5.40;99.90;;;;;;5090114;28;20829;-69
2021/12/07 04:40:35;;;;;;;3.53;1.10;;;5.50;99.90;;;;;;5090038;28;20479;-71
2021/12/07 04:43:03;;;;;;;3.20;1.10;;;5.40;99.90;;;;;;5089997;28;21014;-71
2021/12/07 04:45:38;;;;;;;3.47;1.13;;;5.30;99.90;;;;;;5089946;28;20838;-71
2021/12/07 04:48:31;;;;;;;3.60;1.50;;;5.10;99.90;;;;;;5090063;28;20592;-69
2021/12/07 04:59:17;;;;;;;3.40;1.63;;;4.90;99.90;;;;;;5089500;28;20869;-69
2021/12/07 05:01:44;;;;;;;3.70;1.37;;;4.80;99.90;;;;;;5089966;28;20893;-71
2021/12/07 05:04:15;;;;;;;2.70;0.90;;;4.90;99.90;;;;;;5089621;28;20452;-70
2021/12/07 05:06:48;;;;;;;3.67;1.23;;;4.80;99.90;;;;;;5089716;28;20484;-70
2021/12/07 05:12:21;;;;;;;4.10;1.33;;;4.90;99.90;;;;;;5088730;28;20575;-71
2021/12/07 05:14:48;;;;;;;2.90;1.20;;;4.90;99.90;;;;;;5089061;28;20542;-70
2021/12/07 05:17:29;;;;;;;2.70;1.10;;;4.90;99.90;;;;;;5089001;28;20803;-71
2021/12/07 05:26:00;;;;;;;4.03;1.70;;;4.70;99.90;;;;;;5089611;28;20978;-70
2021/12/07 05:39:21;;;;;;;4.13;2.00;;;4.60;99.90;;;;;;5089312;28;20467;-69
2021/12/07 05:41:50;;;;;;;3.07;1.50;;;4.60;99.90;;;;;;5089508;28;20459;-71
2021/12/07 05:44:17;;;;;;;3.70;1.50;;;4.40;99.90;;;;;;5089399;28;20520;-69
2021/12/07 05:46:44;;;;;;;3.53;1.67;;;4.50;99.90;;;;;;5088885;28;20537;-69
2021/12/07 05:49:11;;;;;;;4.60;1.90;;;4.50;99.90;;;;;;5089205;28;20849;-70
2021/12/07 05:51:38;;;;;;;3.30;1.90;;;4.40;99.90;;;;;;5088942;28;20501;-71
2021/12/07 05:54:05;;;;;;;4.47;1.87;;;4.20;99.90;;;;;;5089103;28;20990;-70
2021/12/07 05:56:33;;;;;;;4.07;1.83;;;4.00;99.90;;;;;;5089264;28;20482;-70
2021/12/07 05:59:01;;;;;;;3.90;1.90;;;4.00;99.90;;;;;;5089159;28;20543;-70
2021/12/07 06:01:28;;;;;;;3.60;1.63;;;4.00;99.90;;;;;;5088923;28;20461;-69
2021/12/07 06:03:55;;;;;;;3.40;1.63;;;3.90;99.90;;;;;;5088780;28;20456;-70
2021/12/07 06:06:22;;;;;;;3.00;1.40;;;3.70;99.90;;;;;;5089063;28;20590;-69
2021/12/07 06:08:49;;;;;;;4.30;2.00;;;3.70;99.90;;;;;;5089205;28;20487;-68
2021/12/07 06:11:18;;;;;;;4.73;1.67;;;3.70;99.90;;;;;;5089038;28;20466;-71
2021/12/07 06:13:45;;;;;;;3.53;1.60;;;3.60;99.90;;;;;;5088682;28;20993;-70
2021/12/07 06:16:15;;;;;;;5.43;2.00;;;3.60;99.90;;;;;;5088773;28;20475;-70
2021/12/07 06:18:43;;;;;;;4.50;2.00;;;3.70;99.90;;;;;;5088605;28;20978;-70
2021/12/07 06:21:11;;;;;;;4.03;1.93;;;3.70;99.90;;;;;;5088979;28;20462;-68
2021/12/07 06:23:38;;;;;;;4.40;2.37;;;3.70;99.90;;;;;;5088647;28;20459;-70
2021/12/07 06:26:05;;;;;;;4.30;1.73;;;3.70;99.90;;;;;;5088267;28;20994;-69
2021/12/07 06:28:33;;;;;;;5.37;1.40;;;3.70;99.90;;;;;;5090514;28;20487;-69
2021/12/07 06:31:00;;;;;;;6.80;2.07;;;3.60;99.90;;;;;;5092489;28;20455;-69
2021/12/07 06:33:29;;;;;;;4.20;1.67;;;3.70;99.90;;;;;;5093356;28;20454;-70
2021/12/07 06:35:59;;;;;;;5.93;2.77;;;3.80;99.90;;;;;;5092507;28;20601;-68
2021/12/07 06:38:27;;;;;;;4.20;2.00;;;3.60;99.90;;;;;;5092122;28;20513;-68
2021/12/07 06:40:55;;;;;;;4.43;2.40;;;3.60;99.90;;;;;;5092288;28;20451;-71
2021/12/07 06:43:22;;;;;;;4.50;2.60;;;3.60;99.90;;;;;;5092341;28;20460;-69
2021/12/07 06:45:50;;;;;;;3.63;1.80;;;3.60;99.90;;;;;;5092216;28;20482;-72
2021/12/07 06:48:18;;;;;;;5.23;2.00;;;3.70;99.90;;;;;;5092191;28;20495;-69
2021/12/07 06:50:47;;;;;;;5.00;1.83;;;3.70;99.90;;;;;;5092221;28;20509;-70
2021/12/07 06:53:14;;;;;;;4.50;2.10;;;3.80;99.90;;;;;;5091811;28;20489;-70
2021/12/07 06:55:41;;;;;;;4.97;2.13;;;3.80;99.90;;;;;;5090860;28;20854;-70
2021/12/07 06:58:08;;;;;;;5.00;1.93;;;3.80;99.90;;;;;;5092031;28;20498;-71
2021/12/07 07:00:35;;;;;;;3.27;1.70;;;3.70;99.90;;;;;;5091652;28;20525;-70
2021/12/07 07:03:02;;;;;;;5.40;2.87;;;3.70;99.90;;;;;;5091488;28;20534;-69
2021/12/07 07:05:30;;;;;;;4.80;2.23;;;3.60;99.90;;;;;;5091519;28;20476;-70
2021/12/07 07:07:58;;;;;;;4.20;2.30;;;3.60;99.90;;;;;;5091694;28;20958;-70
2021/12/07 07:10:26;;;;;;;4.47;2.30;;;3.60;99.90;;;;;;5091313;28;20846;-69
2021/12/07 07:12:53;;;;;;;4.43;2.00;;;3.50;99.90;;;;;;5091497;28;20552;-68
2021/12/07 07:15:21;;;;;;;4.70;2.03;;;3.60;99.90;;;;;;5091393;28;20469;-73
2021/12/07 07:17:48;;;;;;;3.83;1.63;;;3.50;99.90;;;;;;5091836;28;20508;-72
2021/12/07 07:20:16;;;;;;;5.40;2.70;;;3.50;99.90;;;;;;5091209;28;20443;-68
2021/12/07 07:22:43;;;;;;;3.53;1.57;;;3.40;99.90;;;;;;5091400;28;20509;-69
2021/12/07 07:25:12;;;;;;;3.63;2.00;;;3.20;99.90;;;;;;5091116;28;20480;-72
2021/12/07 07:27:40;;;;;;;11.53;3.30;;;3.20;99.90;;;;;;5090966;28;20448;-68
2021/12/07 07:30:11;;;;;;;3.43;2.10;;;3.10;99.90;;;;;;5091278;28;20488;-70
2021/12/07 07:32:38;;;;;;;4.30;2.27;;;3.00;99.90;;;;;;5091227;28;20512;-70
2021/12/07 07:35:07;;;;;;;5.20;2.27;;;3.10;99.90;;;;;;5090952;28;20479;-72
2021/12/07 07:37:34;;;;;;;3.77;1.97;;;3.00;99.90;;;;;;5091149;28;20452;-71
2021/12/07 07:40:01;;;;;;;4.63;2.60;;;3.00;99.90;;;;;;5090485;28;20455;-71
2021/12/07 07:42:29;;;;;;;3.43;2.00;;;3.00;99.90;;;;;;5091167;28;20455;-71
2021/12/07 07:44:57;;;;;;;3.60;1.80;;;3.10;99.90;;;;;;5090823;28;20817;-77
2021/12/07 07:47:24;;;;;;;4.03;2.00;;;3.10;99.90;;;;;;5091102;28;20905;-71
2021/12/07 07:49:51;;;;;;;3.63;2.03;;;3.10;99.90;;;;;;5090770;28;21036;-72
2021/12/07 07:52:18;;;;;;;5.00;3.13;;;3.10;99.90;;;;;;5090725;28;20467;-71
2021/12/07 07:54:45;;;;;;;5.13;2.63;;;3.10;99.90;;;;;;5090913;28;20501;-73
2021/12/07 07:57:12;;;;;;;4.40;2.40;;;3.00;99.90;;;;;;5090614;28;20962;-71
2021/12/07 07:59:40;;;;;;;8.37;4.80;;;3.00;99.90;;;;;;5090514;28;20459;-72
2021/12/07 08:02:08;;;;;;;5.70;3.30;;;3.10;99.90;;;;;;5090327;28;20450;-72
2021/12/07 08:04:36;;;;;;;4.47;2.80;;;3.10;99.90;;;;;;5090207;28;20846;-74
2021/12/07 08:07:03;;;;;;;5.13;2.30;;;3.10;99.90;;;;;;5090767;28;20886;-72
2021/12/07 08:09:30;;;;;;;7.57;3.93;;;3.20;99.90;;;;;;5090395;28;20492;-72
2021/12/07 08:11:57;;;;;;;6.57;3.20;;;3.10;99.90;;;;;;5090230;28;20905;-73
2021/12/07 08:14:24;;;;;;;3.43;1.70;;;3.00;99.90;;;;;;5089910;28;20505;-71
2021/12/07 08:16:53;;;;;;;5.50;2.83;;;3.10;99.90;;;;;;5090331;28;20944;-74
2021/12/07 08:19:20;;;;;;;4.60;2.93;;;3.10;99.90;;;;;;5089960;28;21362;-70
2021/12/07 08:21:48;;;;;;;3.90;2.13;;;3.10;99.90;;;;;;5090534;28;20529;-71
2021/12/07 08:24:15;;;;;;;5.67;2.50;;;3.10;99.90;;;;;;5090564;28;20840;-71
2021/12/07 08:26:42;;;;;;;4.20;2.23;;;3.20;99.90;;;;;;5090058;28;20475;-72
2021/12/07 08:29:09;;;;;;;3.60;2.00;;;3.10;99.90;;;;;;5090041;28;20844;-69
2021/12/07 08:31:37;;;;;;;3.97;2.40;;;3.10;99.90;;;;;;5090115;28;20455;-73
2021/12/07 08:34:05;;;;;;;5.00;2.83;;;3.10;99.90;;;;;;5089970;28;20459;-72
2021/12/07 08:36:32;;;;;;;4.77;2.80;;;3.10;99.90;;;;;;5089699;28;20541;-73
2021/12/07 08:39:00;;;;;;;6.20;2.90;;;3.10;99.90;;;;;;5090162;28;20524;-72
2021/12/07 08:41:27;;;;;;;6.57;3.17;;;3.20;99.90;;;;;;5090131;28;20511;-73
2021/12/07 08:43:56;;;;;;;5.27;3.30;;;3.20;99.90;;;;;;5089726;28;20467;-73
2021/12/07 08:46:23;;;;;;;6.27;2.70;;;3.30;99.90;;;;;;5089675;28;20472;-73
2021/12/07 08:48:50;;;;;;;5.53;3.00;;;3.40;99.90;;;;;;5089703;28;20494;-70
2021/12/07 08:51:19;;;;;;;5.03;2.40;;;3.30;99.90;;;;;;5088634;28;20520;-75
2021/12/07 08:53:52;;;;;;;5.20;3.20;;;3.30;99.90;;;;;;5089710;28;20797;-73
2021/12/07 09:01:49;;;;;;;5.43;3.30;;;3.40;99.90;;;;;;5089900;28;20527;-73
2021/12/07 09:04:17;;;;;;;5.50;3.20;;;3.50;99.90;;;;;;5089412;28;20501;-72
2021/12/07 09:06:46;;;;;;;4.17;2.43;;;3.50;99.90;;;;;;5089578;28;20485;-73
2021/12/07 09:09:14;;;;;;;5.83;2.80;;;3.40;99.90;;;;;;5089398;28;20512;-72
2021/12/07 09:11:41;;;;;;;7.07;3.87;;;3.30;99.90;;;;;;5089138;28;20471;-73
2021/12/07 09:14:12;;;;;;;4.33;2.87;;;3.40;99.90;;;;;;5089398;28;20835;-73
2021/12/07 09:16:39;;;;;;;4.57;2.80;;;3.50;99.90;;;;;;5089552;28;20549;-74
2021/12/07 09:19:06;;;;;;;6.33;3.50;;;3.50;99.90;;;;;;5089201;28;20940;-79
2021/12/07 09:21:34;;;;;;;6.20;3.33;;;3.50;99.90;;;;;;5089483;28;20455;-77
2021/12/07 09:24:03;;;;;;;5.40;3.07;;;3.60;99.90;;;;;;5089214;28;20462;-73
2021/12/07 09:26:30;;;;;;;6.43;3.10;;;3.50;99.90;;;;;;5089692;28;20476;-74
2021/12/07 09:28:57;;;;;;;6.70;3.40;;;3.40;99.90;;;;;;5089147;28;20523;-70
2021/12/07 09:31:25;;;;;;;4.90;2.93;;;3.50;99.90;;;;;;5089432;28;20943;-72
2021/12/07 09:33:54;;;;;;;4.70;2.87;;;3.50;99.90;;;;;;5089612;28;20452;-75
2021/12/07 09:36:21;;;;;;;6.47;3.00;;;3.40;99.90;;;;;;5088849;28;21020;-74
2021/12/07 09:38:48;;;;;;;7.20;2.83;;;3.30;99.90;;;;;;5089214;28;20447;-75
2021/12/07 09:41:18;;;;;;;5.67;2.97;;;3.30;99.90;;;;;;5089543;28;20498;-71
2021/12/07 09:43:46;;;;;;;5.90;3.00;;;3.40;99.90;;;;;;5089116;28;20932;-75
2021/12/07 09:46:15;;;;;;;5.73;3.40;;;3.50;99.90;;;;;;5089308;28;20979;-76
2021/12/07 09:48:43;;;;;;;3.97;2.73;;;3.50;99.90;;;;;;5089046;28;20451;-73
2021/12/07 09:51:13;;;;;;;5.17;3.20;;;3.60;99.90;;;;;;5088972;28;20892;-72
2021/12/07 09:53:40;;;;;;;6.40;3.50;;;3.70;99.90;;;;;;5089678;28;20455;-73
2021/12/07 09:56:08;;;;;;;5.93;4.23;;;3.80;99.90;;;;;;5090672;28;20472;-74
2021/12/07 09:58:38;;;;;;;6.20;3.83;;;3.80;99.90;;;;;;5090397;28;20474;-72
2021/12/07 10:01:06;;;;;;;8.00;5.73;;;3.80;99.90;;;;;;5090929;28;20445;-72
2021/12/07 10:03:33;;;;;;;5.97;4.30;;;3.80;99.90;;;;;;5091598;28;20454;-75
2021/12/07 10:06:00;;;;;;;7.43;3.73;;;3.80;99.90;;;;;;5093590;28;20556;-74
2021/12/07 10:08:27;;;;;;;6.37;4.40;;;3.80;99.90;;;;;;5093518;28;20947;-72
2021/12/07 10:10:57;;;;;;;6.90;4.20;;;3.70;99.90;;;;;;5093205;28;20502;-74
2021/12/07 10:13:27;;;;;;;5.70;4.10;;;3.80;99.90;;;;;;5092674;28;20498;-73
2021/12/07 10:15:57;;;;;;;5.60;3.40;;;3.80;99.90;;;;;;5092872;28;20482;-76
2021/12/07 10:18:26;;;;;;;7.17;3.77;;;3.80;99.90;;;;;;5093144;28;20552;-73
2021/12/07 10:20:55;;;;;;;4.80;3.20;;;3.80;99.90;;;;;;5092500;28;20477;-75
2021/12/07 10:23:27;;;;;;;6.10;4.07;;;3.90;99.90;;;;;;5092991;28;20457;-77
2021/12/07 10:25:56;;;;;;;6.97;4.10;;;3.90;99.90;;;;;;5092802;28;20605;-76
2021/12/07 10:28:26;;;;;;;6.27;4.00;;;4.00;99.90;;;;;;5092557;28;20804;-76
2021/12/07 10:30:55;;;;;;;7.87;4.00;;;4.10;99.90;;;;;;5092616;28;20534;-75
2021/12/07 10:33:30;;;;;;;7.03;3.63;;;4.00;99.90;;;;;;5092722;28;20459;-74
2021/12/07 10:36:10;;;;;;;5.83;4.30;;;3.90;99.90;;;;;;5092319;28;20537;-74
2021/12/07 10:38:38;;;;;;;6.83;3.90;;;4.00;99.90;;;;;;5092839;28;20448;-75
2021/12/07 10:41:08;;;;;;;8.63;4.90;;;4.00;99.90;;;;;;5092183;28;20460;-74
2021/12/07 10:43:47;;;;;;;9.23;5.07;;;4.10;99.90;;;;;;5092536;28;20571;-74
2021/12/07 10:46:52;;;;;;;8.13;4.90;;;4.00;99.90;;;;;;5092283;28;20588;-73
2021/12/07 10:49:27;;;;;;;7.77;5.73;;;4.00;99.90;;;;;;5091887;28;20562;-77
2021/12/07 10:52:20;;;;;;;6.70;4.80;;;3.90;99.90;;;;;;5092306;28;20806;-75
2021/12/07 10:54:58;;;;;;;6.67;5.10;;;3.80;99.90;;;;;;5091887;28;20925;-74
2021/12/07 10:57:29;;;;;;;8.70;6.13;;;3.70;99.90;;;;;;5091927;28;20446;-75
2021/12/07 11:00:02;;;;;;;15.33;7.00;;;3.60;99.90;;;;;;5093661;28;20441;-74
2021/12/07 11:02:34;;;;;;;8.47;5.43;;;3.50;99.90;;;;;;5092138;28;20453;-75
2021/12/07 11:05:02;;;;;;;9.40;6.73;;;3.60;99.90;;;;;;5091404;28;20472;-74
2021/12/07 11:07:30;;;;;;;7.60;6.00;;;3.60;99.90;;;;;;5092136;28;20871;-77
2021/12/07 11:10:05;;;;;;;14.50;6.30;;;3.60;99.90;;;;;;5091612;28;20491;-75
2021/12/07 11:12:40;;;;;;;8.37;6.13;;;3.70;99.90;;;;;;5091179;28;20495;-75
2021/12/07 11:15:14;;;;;;;5.53;4.13;;;3.70;99.90;;;;;;5090784;28;20476;-74
2021/12/07 11:17:44;;;;;;;7.80;4.87;;;3.40;99.90;;;;;;5091797;28;20563;-77
2021/12/07 11:20:12;;;;;;;6.63;5.37;;;3.50;99.90;;;;;;5091843;28;20450;-75
2021/12/07 11:22:41;;;;;;;6.30;4.30;;;3.40;99.90;;;;;;5091973;28;20451;-74
2021/12/07 11:25:10;;;;;;;6.67;4.40;;;3.40;99.90;;;;;;5091542;28;20475;-74
2021/12/07 11:30:28;;;;;;;6.67;4.07;;;3.40;99.90;;;;;;5091078;28;20489;-74
2021/12/07 11:32:59;;;;;;;6.50;4.23;;;3.40;99.90;;;;;;5091231;28;20469;-74
2021/12/07 11:35:28;;;;;;;6.10;3.43;;;3.50;99.90;;;;;;5091046;28;20468;-72
2021/12/07 11:37:57;;;;;;;6.93;3.40;;;3.50;99.90;;;;;;5090773;28;20474;-71
2021/12/07 11:40:27;;;;;;;5.97;3.60;;;3.60;99.90;;;;;;5091286;28;20451;-74
2021/12/07 11:42:55;;;;;;;7.10;3.73;;;3.60;99.90;;;;;;5091456;28;20450;-74
2021/12/07 11:45:25;;;;;;;6.30;4.00;;;3.70;99.90;;;;;;5091259;28;20505;-76
2021/12/07 11:47:54;;;;;;;5.13;3.60;;;3.80;99.90;;;;;;5091035;28;20901;-74
2021/12/07 11:50:28;;;;;;;5.20;3.40;;;3.70;99.90;;;;;;5091018;28;20502;-76
2021/12/07 11:52:58;;;;;;;5.87;3.70;;;3.70;99.90;;;;;;5091013;28;20447;-75
2021/12/07 11:55:26;;;;;;;6.67;3.50;;;3.60;99.90;;;;;;5090672;28;20821;-73
2021/12/07 11:57:54;;;;;;;7.37;4.17;;;3.70;99.90;;;;;;5090893;28;20461;-73
2021/12/07 12:00:23;;;;;;;5.53;4.00;;;3.50;99.90;;;;;;5091123;28;20533;-76
2021/12/07 12:02:51;;;;;;;6.13;3.80;;;3.40;99.90;;;;;;5090618;28;20445;-75
2021/12/07 12:05:19;;;;;;;5.87;3.27;;;3.40;99.90;;;;;;5090760;28;20296;-76
2021/12/07 12:07:48;;;;;;;4.97;3.00;;;3.40;99.90;;;;;;5090597;28;20449;-74
2021/12/07 12:10:17;;;;;;;6.20;4.10;;;3.30;99.90;;;;;;5090195;28;21031;-76
2021/12/07 12:13:12;;;;;;;4.87;3.73;;;3.40;99.90;;;;;;5090371;28;20889;-77
2021/12/07 12:16:08;;;;;;;4.33;2.73;;;3.50;99.90;;;;;;5090649;28;20474;-75
2021/12/07 12:18:46;;;;;;;5.47;3.47;;;3.40;99.90;;;;;;5089374;28;20458;-68
2021/12/07 12:21:20;;;;;;;7.47;3.80;;;3.30;99.90;;;;;;5069671;28;20482;-70
2021/12/07 12:23:59;;;;;;;5.30;3.57;;;3.20;99.90;;;;;;5069959;28;20781;-69
2021/12/07 12:26:27;;;;;;;7.40;4.10;;;3.10;99.90;;;;;;5069971;28;20809;-68
2021/12/07 12:28:56;;;;;;;4.93;3.27;;;3.30;99.90;;;;;;5070015;28;20456;-73
2021/12/07 12:31:45;;;;;;;5.43;3.37;;;3.30;99.90;;;;;;5069619;28;20492;-72
2021/12/07 12:34:17;;;;;;;5.47;3.23;;;2.50;99.90;;;;;;5069291;28;20501;-73
2021/12/07 12:36:57;;;;;;;4.70;2.60;;;3.30;99.90;;;;;;5070159;28;20512;-72
2021/12/07 12:39:44;;;;;;;6.53;3.10;;;3.20;99.90;;;;;;5069407;28;20450;-71
2021/12/07 12:42:19;;;;;;;8.33;5.07;;;3.10;99.90;;;;;;5069662;28;20557;-71
2021/12/07 12:44:49;;;;;;;4.77;2.70;;;3.30;99.90;;;;;;5069777;28;20938;-71
2021/12/07 12:47:20;;;;;;;5.73;3.77;;;3.30;99.90;;;;;;5069542;28;20452;-70
2021/12/07 12:49:47;;;;;;;6.30;3.70;;;3.40;99.90;;;;;;5068046;28;20480;-71
2021/12/07 12:52:14;;;;;;;5.40;3.20;;;3.40;99.90;;;;;;5069711;28;20459;-78
2021/12/07 12:54:47;;;;;;;6.18;3.70;;;3.60;99.90;;;;;;5069214;28;20445;-65
2021/12/07 12:57:17;;;;;;;5.07;3.77;;;3.70;99.90;;;;;;5071545;28;20359;-77
2021/12/07 12:59:47;;;;;;;5.23;3.47;;;3.60;99.90;;;;;;5070966;28;20514;-77
2021/12/07 13:02:18;;;;;;;6.03;3.63;;;3.50;99.90;;;;;;5069884;28;20442;-81
2021/12/07 13:05:04;;;;;;;4.83;3.27;;;3.40;99.90;;;;;;5079286;28;20979;-77
2021/12/07 13:07:31;;;;;;;4.90;3.03;;;3.40;99.90;;;;;;5102352;28;20459;-76
2021/12/07 13:10:02;;;;;;;5.33;3.43;;;3.50;99.90;;;;;;5094260;28;20462;-80
2021/12/07 13:12:35;;;;;;;6.10;3.80;;;3.40;99.90;;;;;;5093832;28;20551;-77
2021/12/07 13:15:07;;;;;;;4.77;3.70;;;3.40;99.90;;;;;;5090112;28;20564;-74
2021/12/07 13:17:39;;;;;;;6.57;4.30;;;3.40;99.90;;;;;;5089450;28;20468;-72
2021/12/07 13:20:29;;;;;;;5.87;4.13;;;3.40;99.90;;;;;;5089798;28;20492;-73
2021/12/07 13:23:09;;;;;;;5.43;3.40;;;3.50;99.90;;;;;;5089814;28;20953;-73
2021/12/07 13:25:41;;;;;;;5.00;3.20;;;3.40;99.90;;;;;;5089229;28;20995;-71
2021/12/07 13:28:24;;;;;;;5.60;3.27;;;3.30;99.90;;;;;;5089687;28;20440;-67
2021/12/07 13:30:57;;;;;;;9.50;4.80;;;3.30;99.90;;;;;;5089698;28;20532;-71
2021/12/07 13:33:34;;;;;;;7.20;4.40;;;3.20;99.90;;;;;;5089396;28;20447;-73
2021/12/07 13:36:02;;;;;;;7.03;4.73;;;3.00;99.90;;;;;;5089342;28;20478;-71
2021/12/07 13:38:31;;;;;;;5.60;4.30;;;2.90;99.90;;;;;;5089084;28;20945;-73
2021/12/07 13:41:20;;;;;;;6.00;3.80;;;2.70;99.90;;;;;;5089630;28;20489;-73
2021/12/07 13:43:50;;;;;;;6.30;3.77;;;2.70;99.90;;;;;;5089795;28;20447;-75
2021/12/07 13:46:20;;;;;;;4.13;2.80;;;2.70;99.90;;;;;;5089006;28;20481;-73
2021/12/07 13:48:50;;;;;;;5.10;3.70;;;2.60;99.90;;;;;;5089311;28;20981;-72
2021/12/07 13:51:20;;;;;;;7.60;3.50;;;2.70;99.90;;;;;;5089554;28;20946;-73
2021/12/07 13:53:49;;;;;;;5.70;2.80;;;2.70;99.90;;;;;;5089537;28;20454;-73
2021/12/07 13:56:17;;;;;;;5.50;3.40;;;2.70;99.90;;;;;;5089397;28;20487;-74
2021/12/07 13:58:55;;;;;;;5.10;3.30;;;2.70;99.90;;;;;;5089348;28;20456;-72
2021/12/07 14:01:24;;;;;;;5.00;3.10;;;2.70;99.90;;;;;;5088965;28;20502;-73
2021/12/07 14:03:52;;;;;;;5.53;3.23;;;2.70;99.90;;;;;;5088947;28;20476;-72
2021/12/07 14:06:19;;;;;;;9.17;6.13;;;2.70;99.90;;;;;;5089327;28;20472;-73
2021/12/07 14:08:47;;;;;;;7.83;3.90;;;2.70;99.90;;;;;;5088990;28;20452;-72
2021/12/07 14:11:15;;;;;;;5.60;3.53;;;2.70;99.90;;;;;;5088829;28;20483;-73
2021/12/07 14:13:43;;;;;;;6.20;5.07;;;2.80;99.90;;;;;;5088615;28;20510;-73
2021/12/07 14:16:13;;;;;;;7.10;3.50;;;2.80;99.90;;;;;;5088388;28;20831;-73
2021/12/07 14:18:43;;;;;;;7.53;4.67;;;2.80;99.90;;;;;;5089095;28;20939;-73
2021/12/07 14:21:10;;;;;;;6.00;4.20;;;2.70;99.90;;;;;;5089159;28;20516;-72
2021/12/07 14:23:40;;;;;;;6.40;4.53;;;2.70;99.90;;;;;;5088728;28;20466;-73
2021/12/07 14:26:10;;;;;;;6.20;4.73;;;2.70;99.90;;;;;;5088564;28;20481;-72
2021/12/07 14:28:40;;;;;;;7.27;5.00;;;2.70;99.90;;;;;;5088930;28;21028;-72
2021/12/07 14:31:13;;;;;;;6.30;4.60;;;2.80;99.90;;;;;;5088769;28;20609;-73
2021/12/07 14:33:43;;;;;;;6.70;4.10;;;2.80;99.90;;;;;;5089031;28;20462;-72